sensor_id;sensor_type;location;lat;lon;timestamp;pressure;altitude;pressure_sealevel;temperature;humidity
70458;BME280;57919;56.194;95.716;2022-09-14T00:05:41;100354.97;;;1.44;71.13
70458;BME280;57919;56.194;95.716;2022-09-14T00:15:43;100365.69;;;1.95;70.66
70458;BME280;57919;56.194;95.716;2022-09-14T00:25:46;100346.34;;;2.38;70.18
70458;BME280;57919;56.194;95.716;2022-09-14T00:35:48;100362.72;;;2.99;69.71
70458;BME280;57919;56.194;95.716;2022-09-14T00:45:51;100346.69;;;3.65;69.08
70458;BME280;57919;56.194;95.716;2022-09-14T00:55:53;100326.03;;;4.68;66.98
70458;BME280;57919;56.194;95.716;2022-09-14T01:48:06;100268.66;;;9.56;59.67
70458;BME280;57919;56.194;95.716;2022-09-14T01:58:16;100236.75;;;10.64;57.58
70458;BME280;57919;56.194;95.716;2022-09-14T02:08:20;100242.03;;;11.86;55.60
70458;BME280;57919;56.194;95.716;2022-09-14T02:18:22;100229.84;;;13.37;53.26
70458;BME280;57919;56.194;95.716;2022-09-14T02:28:24;100211.63;;;14.43;51.29
70458;BME280;57919;56.194;95.716;2022-09-14T02:38:45;100207.16;;;15.23;49.31
70458;BME280;57919;56.194;95.716;2022-09-14T02:59:10;100189.16;;;14.81;46.02
70458;BME280;57919;56.194;95.716;2022-09-14T03:09:13;100152.22;;;15.17;42.92
70458;BME280;57919;56.194;95.716;2022-09-14T03:19:14;100155.94;;;15.07;41.46
70458;BME280;57919;56.194;95.716;2022-09-14T03:29:16;100159.59;;;14.77;39.76
70458;BME280;57919;56.194;95.716;2022-09-14T03:39:18;100128.94;;;14.14;41.17
70458;BME280;57919;56.194;95.716;2022-09-14T03:49:20;100130.50;;;14.87;39.44
70458;BME280;57919;56.194;95.716;2022-09-14T03:59:22;100121.53;;;15.44;37.46
70458;BME280;57919;56.194;95.716;2022-09-14T04:09:23;100114.53;;;14.63;38.77
70458;BME280;57919;56.194;95.716;2022-09-14T04:19:25;100092.09;;;15.19;38.19
70458;BME280;57919;56.194;95.716;2022-09-14T04:29:27;100078.69;;;15.93;37.48
70458;BME280;57919;56.194;95.716;2022-09-14T04:39:31;100074.78;;;15.96;37.16
70458;BME280;57919;56.194;95.716;2022-09-14T04:49:32;100047.22;;;16.26;36.13
70458;BME280;57919;56.194;95.716;2022-09-14T04:59:34;100043.41;;;16.09;36.60
70458;BME280;57919;56.194;95.716;2022-09-14T05:09:38;100038.28;;;16.34;36.23
70458;BME280;57919;56.194;95.716;2022-09-14T05:19:40;100031.91;;;16.15;36.85
70458;BME280;57919;56.194;95.716;2022-09-14T05:29:41;100012.09;;;16.59;36.56
70458;BME280;57919;56.194;95.716;2022-09-14T05:39:43;100013.34;;;16.46;37.25
70458;BME280;57919;56.194;95.716;2022-09-14T05:49:45;99982.72;;;17.32;36.40
70458;BME280;57919;56.194;95.716;2022-09-14T05:59:47;99995.22;;;17.34;35.70
70458;BME280;57919;56.194;95.716;2022-09-14T06:09:49;99985.47;;;17.32;35.92
70458;BME280;57919;56.194;95.716;2022-09-14T06:19:50;99971.50;;;17.17;36.18
70458;BME280;57919;56.194;95.716;2022-09-14T06:29:52;99944.50;;;16.43;36.68
70458;BME280;57919;56.194;95.716;2022-09-14T06:39:55;99955.38;;;16.07;37.00
70458;BME280;57919;56.194;95.716;2022-09-14T06:49:56;99956.38;;;15.79;37.63
70458;BME280;57919;56.194;95.716;2022-09-14T06:59:59;99942.78;;;15.97;37.79
70458;BME280;57919;56.194;95.716;2022-09-14T07:10:01;99931.38;;;15.83;37.40
70458;BME280;57919;56.194;95.716;2022-09-14T07:20:21;99923.38;;;15.72;37.81
70458;BME280;57919;56.194;95.716;2022-09-14T07:30:23;99910.84;;;15.79;37.37
70458;BME280;57919;56.194;95.716;2022-09-14T07:40:27;99906.09;;;15.81;37.20
70458;BME280;57919;56.194;95.716;2022-09-14T07:50:29;99893.69;;;15.69;37.45
70458;BME280;57919;56.194;95.716;2022-09-14T08:00:31;99895.25;;;15.72;37.45
70458;BME280;57919;56.194;95.716;2022-09-14T08:10:34;99883.41;;;15.81;37.36
70458;BME280;57919;56.194;95.716;2022-09-14T08:20:36;99862.06;;;15.76;37.19
70458;BME280;57919;56.194;95.716;2022-09-14T08:30:38;99857.91;;;15.72;37.49
70458;BME280;57919;56.194;95.716;2022-09-14T08:40:46;99864.03;;;15.47;37.93
70458;BME280;57919;56.194;95.716;2022-09-14T08:50:49;99861.91;;;15.41;37.87
70458;BME280;57919;56.194;95.716;2022-09-14T09:10:58;99853.41;;;15.16;38.24
70458;BME280;57919;56.194;95.716;2022-09-14T09:21:17;99856.13;;;15.16;38.33
70458;BME280;57919;56.194;95.716;2022-09-14T09:31:32;99860.16;;;15.12;38.14
70458;BME280;57919;56.194;95.716;2022-09-14T09:42:00;99853.38;;;14.79;39.00
70458;BME280;57919;56.194;95.716;2022-09-14T09:52:15;99857.84;;;14.61;39.57
70458;BME280;57919;56.194;95.716;2022-09-14T10:02:29;99857.72;;;14.53;39.72
70458;BME280;57919;56.194;95.716;2022-09-14T10:12:32;99864.88;;;14.54;40.18
70458;BME280;57919;56.194;95.716;2022-09-14T10:22:37;99863.03;;;14.45;40.38
70458;BME280;57919;56.194;95.716;2022-09-14T11:04:01;99866.00;;;14.32;41.45
70458;BME280;57919;56.194;95.716;2022-09-14T11:34:41;99866.94;;;13.73;43.42
70458;BME280;57919;56.194;95.716;2022-09-14T11:44:44;99862.13;;;13.46;43.98
70458;BME280;57919;56.194;95.716;2022-09-14T11:54:48;99876.47;;;13.18;44.77
70458;BME280;57919;56.194;95.716;2022-09-14T12:25:26;99887.78;;;12.08;47.28
70458;BME280;57919;56.194;95.716;2022-09-14T12:46:00;99901.81;;;11.36;49.51
70458;BME280;57919;56.194;95.716;2022-09-14T12:56:14;99903.66;;;11.13;50.41
70458;BME280;57919;56.194;95.716;2022-09-14T13:06:20;99901.41;;;10.85;51.30
70458;BME280;57919;56.194;95.716;2022-09-14T13:26:32;99917.00;;;10.35;53.37
70458;BME280;57919;56.194;95.716;2022-09-14T13:36:40;99911.00;;;10.19;53.95
70458;BME280;57919;56.194;95.716;2022-09-14T13:46:43;99898.75;;;10.02;54.26
70458;BME280;57919;56.194;95.716;2022-09-14T13:56:45;99912.94;;;9.93;54.42
70458;BME280;57919;56.194;95.716;2022-09-14T14:07:01;99904.16;;;9.78;54.98
70458;BME280;57919;56.194;95.716;2022-09-14T14:17:52;99909.47;;;9.67;55.13
70458;BME280;57919;56.194;95.716;2022-09-14T14:27:47;99909.06;;;9.60;55.38
70458;BME280;57919;56.194;95.716;2022-09-14T14:37:49;99910.34;;;9.67;55.41
70458;BME280;57919;56.194;95.716;2022-09-14T14:47:53;99905.31;;;9.87;55.28
70458;BME280;57919;56.194;95.716;2022-09-14T14:57:58;99891.78;;;9.87;55.35
70458;BME280;57919;56.194;95.716;2022-09-14T15:08:03;99893.19;;;9.92;55.36
70458;BME280;57919;56.194;95.716;2022-09-14T15:18:05;99896.22;;;9.88;55.54
70458;BME280;57919;56.194;95.716;2022-09-14T15:28:07;99896.97;;;9.90;55.53
70458;BME280;57919;56.194;95.716;2022-09-14T15:38:09;99885.69;;;9.96;55.17
70458;BME280;57919;56.194;95.716;2022-09-14T15:48:13;99891.56;;;9.90;55.31
70458;BME280;57919;56.194;95.716;2022-09-14T15:58:15;99881.44;;;9.81;55.60
70458;BME280;57919;56.194;95.716;2022-09-14T16:08:17;99883.97;;;9.71;56.14
70458;BME280;57919;56.194;95.716;2022-09-14T16:18:19;99885.06;;;9.68;56.51
70458;BME280;57919;56.194;95.716;2022-09-14T16:28:21;99873.31;;;9.57;56.74
70458;BME280;57919;56.194;95.716;2022-09-14T16:38:23;99890.28;;;9.59;56.79
70458;BME280;57919;56.194;95.716;2022-09-14T16:48:25;99886.06;;;9.55;56.85
70458;BME280;57919;56.194;95.716;2022-09-14T16:58:27;99877.47;;;9.37;57.08
70458;BME280;57919;56.194;95.716;2022-09-14T17:08:30;99889.06;;;9.14;57.84
70458;BME280;57919;56.194;95.716;2022-09-14T17:18:34;99892.06;;;9.34;57.12
70458;BME280;57919;56.194;95.716;2022-09-14T17:28:37;99868.72;;;9.33;56.94
70458;BME280;57919;56.194;95.716;2022-09-14T17:38:40;99892.09;;;9.58;57.18
70458;BME280;57919;56.194;95.716;2022-09-14T17:48:43;99881.91;;;9.25;57.56
70458;BME280;57919;56.194;95.716;2022-09-14T17:58:46;99888.88;;;9.04;57.89
70458;BME280;57919;56.194;95.716;2022-09-14T18:08:52;99881.28;;;9.09;58.07
70458;BME280;57919;56.194;95.716;2022-09-14T18:18:55;99890.47;;;8.68;59.67
70458;BME280;57919;56.194;95.716;2022-09-14T18:29:00;99884.91;;;8.32;60.53
70458;BME280;57919;56.194;95.716;2022-09-14T18:39:02;99888.41;;;8.07;60.83
70458;BME280;57919;56.194;95.716;2022-09-14T18:49:04;99890.44;;;8.03;60.85
70458;BME280;57919;56.194;95.716;2022-09-14T18:59:09;99882.28;;;8.18;60.42
70458;BME280;57919;56.194;95.716;2022-09-14T19:09:12;99881.59;;;8.01;60.87
70458;BME280;57919;56.194;95.716;2022-09-14T19:19:14;99869.75;;;7.77;61.34
70458;BME280;57919;56.194;95.716;2022-09-14T19:29:20;99861.50;;;7.39;61.82
70458;BME280;57919;56.194;95.716;2022-09-14T19:39:23;99864.91;;;7.14;62.85
70458;BME280;57919;56.194;95.716;2022-09-14T19:49:26;99862.13;;;7.16;62.67
70458;BME280;57919;56.194;95.716;2022-09-14T19:59:28;99857.19;;;7.22;62.58
70458;BME280;57919;56.194;95.716;2022-09-14T20:09:30;99858.97;;;6.95;63.02
70458;BME280;57919;56.194;95.716;2022-09-14T20:19:32;99853.59;;;6.66;63.74
70458;BME280;57919;56.194;95.716;2022-09-14T20:29:36;99861.25;;;6.58;64.11
70458;BME280;57919;56.194;95.716;2022-09-14T20:39:37;99864.38;;;6.36;64.22
70458;BME280;57919;56.194;95.716;2022-09-14T20:49:39;99856.03;;;6.41;64.52
70458;BME280;57919;56.194;95.716;2022-09-14T20:59:41;99863.16;;;6.56;63.80
70458;BME280;57919;56.194;95.716;2022-09-14T21:09:43;99849.75;;;6.70;63.58
70458;BME280;57919;56.194;95.716;2022-09-14T21:19:45;99854.53;;;6.79;63.58
70458;BME280;57919;56.194;95.716;2022-09-14T21:29:48;99844.16;;;6.73;64.16
70458;BME280;57919;56.194;95.716;2022-09-14T21:39:50;99852.78;;;6.50;64.35
70458;BME280;57919;56.194;95.716;2022-09-14T21:49:52;99849.91;;;6.39;64.50
70458;BME280;57919;56.194;95.716;2022-09-14T21:59:54;99846.44;;;6.37;64.88
70458;BME280;57919;56.194;95.716;2022-09-14T22:09:55;99826.88;;;6.49;64.36
70458;BME280;57919;56.194;95.716;2022-09-14T22:19:58;99840.53;;;6.74;64.58
70458;BME280;57919;56.194;95.716;2022-09-14T22:30:01;99839.66;;;6.88;64.44
70458;BME280;57919;56.194;95.716;2022-09-14T22:40:04;99837.53;;;6.93;64.61
70458;BME280;57919;56.194;95.716;2022-09-14T22:50:06;99841.19;;;6.92;64.55
70458;BME280;57919;56.194;95.716;2022-09-14T23:00:09;99817.88;;;6.78;65.46
70458;BME280;57919;56.194;95.716;2022-09-14T23:10:11;99860.69;;;6.96;65.30
70458;BME280;57919;56.194;95.716;2022-09-14T23:20:13;99863.38;;;7.10;65.50
70458;BME280;57919;56.194;95.716;2022-09-14T23:30:15;99868.16;;;7.19;65.32
70458;BME280;57919;56.194;95.716;2022-09-14T23:40:17;99852.19;;;7.30;65.35
70458;BME280;57919;56.194;95.716;2022-09-14T23:50:20;99870.19;;;7.57;64.94
